Time;durP1;ratioP1;P1;durP2;ratioP2;P2;SDS_P1;SDS_P2;PMS_P1;PMS_P2;Temp;Humidity;BMP_temperature;BMP_pressure;BME280_temperature;BME280_humidity;BME280_pressure;Samples;Min_cycle;Max_cycle;Signal;HPM_P1;HPM_P2
2022/07/01 00:01:58;;;;;;;2.92;1.10;;;15.80;99.90;;;;;;5030932;28;20052;-52
2022/07/01 00:04:27;;;;;;;6.25;1.17;;;16.10;99.90;;;;;;5032406;28;20767;-51
2022/07/01 00:06:56;;;;;;;5.35;1.33;;;15.80;99.90;;;;;;5030748;28;20044;-50
2022/07/01 00:09:23;;;;;;;5.25;1.63;;;15.90;99.90;;;;;;5027356;28;20040;-52
2022/07/01 00:11:49;;;;;;;4.13;1.35;;;15.90;99.90;;;;;;5027756;28;20063;-54
2022/07/01 00:14:14;;;;;;;2.78;1.27;;;15.80;99.90;;;;;;5022125;28;20148;-50
2022/07/01 00:16:40;;;;;;;2.45;1.17;;;15.90;99.90;;;;;;5050682;28;20043;-51
2022/07/01 00:19:06;;;;;;;2.78;1.10;;;15.90;99.90;;;;;;5050198;28;20049;-54
2022/07/01 00:21:33;;;;;;;3.25;1.20;;;15.90;99.90;;;;;;5029841;28;20076;-53
2022/07/01 00:23:59;;;;;;;2.25;0.85;;;15.90;99.90;;;;;;5035851;28;20555;-53
2022/07/01 00:26:24;;;;;;;3.22;0.95;;;15.80;99.90;;;;;;5010328;28;20047;-54
2022/07/01 00:28:50;;;;;;;3.33;0.80;;;15.90;99.90;;;;;;5031256;28;20043;-55
2022/07/01 00:31:16;;;;;;;1.92;0.90;;;15.90;99.90;;;;;;5037111;28;20632;-53
2022/07/01 00:33:42;;;;;;;4.22;1.35;;;15.90;99.90;;;;;;5019837;28;20466;-50
2022/07/01 00:36:07;;;;;;;3.08;1.08;;;15.90;99.90;;;;;;5026469;28;20033;-51
2022/07/01 00:38:33;;;;;;;2.55;0.90;;;15.90;99.90;;;;;;5029994;28;20037;-52
2022/07/01 00:40:59;;;;;;;5.43;1.70;;;15.90;99.90;;;;;;5035017;28;20047;-52
2022/07/01 00:43:25;;;;;;;2.78;1.10;;;15.90;99.90;;;;;;5036834;28;20041;-51
2022/07/01 00:45:52;;;;;;;4.55;1.50;;;15.90;99.90;;;;;;5034433;28;20057;-50
2022/07/01 00:48:20;;;;;;;2.22;1.50;;;15.90;99.90;;;;;;5017836;28;20056;-51
2022/07/01 00:50:47;;;;;;;3.50;1.70;;;15.90;99.90;;;;;;5035796;28;20609;-53
2022/07/01 00:53:14;;;;;;;4.40;2.05;;;15.80;99.90;;;;;;5032828;28;20049;-50
2022/07/01 00:55:41;;;;;;;3.17;2.00;;;15.70;99.90;;;;;;5036017;28;20072;-50
2022/07/01 00:58:08;;;;;;;4.53;2.10;;;15.70;99.90;;;;;;5035480;28;20446;-52
2022/07/01 01:00:35;;;;;;;5.53;2.10;;;15.80;99.90;;;;;;5038608;28;20538;-54
2022/07/01 01:03:00;;;;;;;3.35;1.45;;;15.80;99.90;;;;;;5033186;28;20064;-51
2022/07/01 01:05:26;;;;;;;4.07;1.58;;;15.80;99.90;;;;;;5032971;28;20161;-51
2022/07/01 01:07:52;;;;;;;3.53;1.80;;;15.80;99.90;;;;;;5033429;28;20079;-51
2022/07/01 01:10:18;;;;;;;3.80;1.45;;;15.80;99.90;;;;;;5027970;28;20114;-53
2022/07/01 01:12:44;;;;;;;3.90;1.40;;;15.80;99.90;;;;;;5025779;28;22076;-53
2022/07/01 01:15:16;;;;;;;2.13;1.55;;;15.80;99.90;;;;;;5013014;28;20155;-50
2022/07/01 01:17:42;;;;;;;3.40;1.98;;;15.80;99.90;;;;;;5037954;28;20407;-52
2022/07/01 01:20:08;;;;;;;4.50;2.03;;;15.80;99.90;;;;;;5029827;28;20037;-53
2022/07/01 01:22:34;;;;;;;3.10;1.50;;;15.80;99.90;;;;;;5040512;28;20045;-52
2022/07/01 01:25:00;;;;;;;3.47;1.45;;;15.80;99.90;;;;;;5031228;28;20103;-53
2022/07/01 01:27:25;;;;;;;2.95;1.70;;;15.80;99.90;;;;;;5034595;28;20044;-51
2022/07/01 01:29:51;;;;;;;3.95;2.08;;;15.90;99.90;;;;;;5039943;28;20065;-53
2022/07/01 01:32:17;;;;;;;3.97;1.58;;;15.80;99.90;;;;;;5035415;28;20063;-51
2022/07/01 01:34:42;;;;;;;7.43;2.33;;;15.80;99.90;;;;;;5051862;28;20084;-53
2022/07/01 01:37:09;;;;;;;2.40;1.65;;;15.90;99.90;;;;;;5024294;28;20047;-54
2022/07/01 01:39:37;;;;;;;4.57;2.05;;;15.90;99.90;;;;;;5033092;28;20051;-51
2022/07/01 01:42:05;;;;;;;4.22;2.15;;;15.80;99.90;;;;;;5031471;28;20063;-51
2022/07/01 01:44:31;;;;;;;2.97;1.95;;;15.80;99.90;;;;;;5032913;28;20098;-52
2022/07/01 01:46:57;;;;;;;2.30;1.65;;;15.90;99.90;;;;;;5042914;28;20459;-50
2022/07/01 01:49:23;;;;;;;6.30;2.58;;;15.90;99.90;;;;;;5037522;28;20072;-54
2022/07/01 01:51:48;;;;;;;3.90;2.40;;;15.90;99.90;;;;;;5039186;28;20037;-52
2022/07/01 01:54:14;;;;;;;4.45;2.38;;;15.90;99.90;;;;;;5022813;28;20506;-49
2022/07/01 01:56:40;;;;;;;3.55;2.70;;;15.90;99.90;;;;;;5039225;28;20087;-51
2022/07/01 01:59:06;;;;;;;7.70;2.70;;;16.00;99.90;;;;;;5031926;28;20057;-51
2022/07/01 02:01:32;;;;;;;3.35;2.78;;;16.00;99.90;;;;;;5041754;28;20049;-54
2022/07/01 02:03:58;;;;;;;4.57;2.65;;;16.00;99.90;;;;;;5045332;28;20208;-51
2022/07/01 02:06:25;;;;;;;4.22;2.63;;;16.00;99.90;;;;;;5036636;28;20407;-53
2022/07/01 02:08:51;;;;;;;3.65;2.33;;;16.00;99.90;;;;;;5038428;28;20048;-51
2022/07/01 02:11:17;;;;;;;4.82;2.70;;;16.00;99.90;;;;;;5036957;28;20047;-53
2022/07/01 02:13:44;;;;;;;4.07;2.53;;;16.00;99.90;;;;;;5040633;28;20049;-54
2022/07/01 02:16:10;;;;;;;4.85;2.35;;;16.00;99.90;;;;;;5036914;28;20051;-53
2022/07/01 02:18:36;;;;;;;3.78;2.10;;;16.00;99.90;;;;;;5038075;28;20047;-54
2022/07/01 02:21:02;;;;;;;3.42;2.08;;;15.50;99.90;;;;;;5040876;28;20041;-52
2022/07/01 02:23:29;;;;;;;4.30;2.53;;;16.00;99.90;;;;;;5035188;28;20048;-54
2022/07/01 02:25:55;;;;;;;4.20;2.13;;;16.00;99.90;;;;;;5023493;28;20052;-54
2022/07/01 02:28:21;;;;;;;4.68;2.47;;;15.90;99.90;;;;;;5042640;28;20047;-54
2022/07/01 02:30:47;;;;;;;3.85;2.00;;;16.00;99.90;;;;;;5044651;28;20041;-51
2022/07/01 02:33:12;;;;;;;5.30;2.40;;;15.90;99.90;;;;;;5044424;28;20099;-53
2022/07/01 02:35:40;;;;;;;7.50;2.83;;;15.90;99.90;;;;;;5042957;28;20075;-50
2022/07/01 02:38:07;;;;;;;4.10;2.25;;;15.90;99.90;;;;;;5044573;28;20053;-53
2022/07/01 02:40:37;;;;;;;3.15;2.05;;;15.80;99.90;;;;;;5027231;28;20403;-53
2022/07/01 02:43:03;;;;;;;4.45;2.10;;;15.80;99.90;;;;;;5044100;28;20211;-54
2022/07/01 02:45:29;;;;;;;3.75;2.33;;;15.80;99.90;;;;;;5043760;28;20140;-52
2022/07/01 02:47:55;;;;;;;3.50;2.53;;;15.80;99.90;;;;;;5026939;28;20128;-52
2022/07/01 02:50:21;;;;;;;3.40;1.85;;;15.50;99.90;;;;;;5042969;28;20037;-51
2022/07/01 02:52:46;;;;;;;5.15;2.17;;;15.80;99.90;;;;;;5037631;28;20037;-52
2022/07/01 02:55:13;;;;;;;4.00;2.38;;;15.80;99.90;;;;;;5043188;28;20098;-51
2022/07/01 02:57:41;;;;;;;3.22;2.05;;;15.80;99.90;;;;;;5028044;28;20499;-50
2022/07/01 03:00:13;;;;;;;3.78;2.35;;;15.80;99.90;;;;;;5045417;28;20044;-50
2022/07/01 03:02:39;;;;;;;4.75;2.00;;;15.80;99.90;;;;;;5039131;28;20049;-53
2022/07/01 03:05:05;;;;;;;1.98;1.60;;;15.80;99.90;;;;;;5056899;28;20064;-53
2022/07/01 03:07:31;;;;;;;4.80;2.30;;;15.90;99.90;;;;;;5045342;28;20045;-54
2022/07/01 03:09:57;;;;;;;6.07;2.60;;;15.80;99.90;;;;;;5039060;28;20397;-53
2022/07/01 03:12:27;;;;;;;3.67;2.47;;;15.90;99.90;;;;;;5024709;28;20045;-54
2022/07/01 03:15:05;;;;;;;4.28;2.60;;;15.80;99.90;;;;;;5050647;28;20041;-54
2022/07/01 03:17:32;;;;;;;8.57;2.85;;;15.80;99.90;;;;;;5046762;28;20128;-53
2022/07/01 03:19:59;;;;;;;5.15;2.47;;;15.80;99.90;;;;;;5040014;28;20503;-51
2022/07/01 03:22:29;;;;;;;6.13;2.30;;;15.80;99.90;;;;;;5041072;28;20080;-53
2022/07/01 03:24:55;;;;;;;3.67;2.10;;;15.80;99.90;;;;;;5045804;28;20124;-53
2022/07/01 03:27:22;;;;;;;3.50;2.08;;;15.90;99.90;;;;;;5042252;28;20032;-51
2022/07/01 03:29:48;;;;;;;4.50;2.53;;;15.80;99.90;;;;;;5043382;28;20617;-54
2022/07/01 03:32:14;;;;;;;4.43;2.08;;;15.80;99.90;;;;;;5043483;28;20040;-54
2022/07/01 03:34:44;;;;;;;4.57;2.42;;;15.80;99.90;;;;;;5041995;28;20613;-61
2022/07/01 03:37:11;;;;;;;7.40;3.00;;;15.80;99.90;;;;;;5037170;28;20052;-54
2022/07/01 03:39:38;;;;;;;6.10;2.67;;;15.80;99.90;;;;;;5031895;28;20040;-54
2022/07/01 03:42:05;;;;;;;5.05;2.83;;;15.80;99.90;;;;;;5037423;28;20064;-54
2022/07/01 03:44:31;;;;;;;5.88;2.80;;;15.80;99.90;;;;;;5044200;28;20045;-54
2022/07/01 03:46:57;;;;;;;5.85;3.25;;;15.80;99.90;;;;;;5040278;28;20060;-53
2022/07/01 03:49:24;;;;;;;6.80;3.05;;;15.70;99.90;;;;;;5041926;28;20057;-51
2022/07/01 03:51:50;;;;;;;8.35;3.78;;;15.70;99.90;;;;;;5040234;28;20036;-53
2022/07/01 03:54:32;;;;;;;7.72;3.17;;;15.70;99.90;;;;;;5047783;28;20068;-53
2022/07/01 03:57:03;;;;;;;6.15;3.40;;;15.70;99.90;;;;;;5049526;28;20041;-52
2022/07/01 03:59:31;;;;;;;8.60;3.33;;;15.70;99.90;;;;;;5041697;28;20037;-52
2022/07/01 04:01:59;;;;;;;6.25;3.20;;;15.70;99.90;;;;;;5040262;28;20095;-51
2022/07/01 04:04:26;;;;;;;4.97;3.20;;;15.70;99.90;;;;;;5046357;28;20087;-54
2022/07/01 04:06:54;;;;;;;6.82;2.78;;;15.70;99.90;;;;;;5040496;28;20051;-51
2022/07/01 04:09:21;;;;;;;8.18;3.40;;;15.70;99.90;;;;;;5043723;28;20431;-51
2022/07/01 04:11:48;;;;;;;8.05;3.05;;;15.70;99.90;;;;;;5040365;28;20056;-51
2022/07/01 04:14:14;;;;;;;5.72;2.80;;;15.70;99.90;;;;;;5040076;28;20195;-53
2022/07/01 04:16:40;;;;;;;9.23;2.92;;;15.70;99.90;;;;;;5039975;28;20033;-51
2022/07/01 04:19:07;;;;;;;5.68;2.60;;;15.70;99.90;;;;;;5043441;28;20130;-51
2022/07/01 04:24:18;;;;;;;6.65;2.90;;;15.80;99.90;;;;;;5034802;28;20045;-53
2022/07/01 04:26:44;;;;;;;4.70;2.33;;;15.80;99.90;;;;;;5043734;28;20037;-52
2022/07/01 04:29:10;;;;;;;6.50;2.00;;;15.80;99.90;;;;;;5046223;28;20386;-53
2022/07/01 04:31:37;;;;;;;8.10;2.53;;;15.80;99.90;;;;;;5041513;28;20093;-53
2022/07/01 04:34:03;;;;;;;4.35;2.17;;;15.80;99.90;;;;;;5041020;28;20419;-51
2022/07/01 04:36:29;;;;;;;5.55;1.58;;;15.80;99.90;;;;;;5024119;28;20037;-53
2022/07/01 04:38:56;;;;;;;4.00;1.98;;;15.80;99.90;;;;;;5035759;28;20538;-54
2022/07/01 04:44:05;;;;;;;;;;;15.80;99.90;;;;;;5044498;28;20041;-53
2022/07/01 04:46:31;;;;;;;3.13;1.75;;;15.80;99.90;;;;;;5042811;28;19932;-54
2022/07/01 04:48:57;;;;;;;8.20;1.95;;;15.70;99.90;;;;;;5043223;28;20036;-54
2022/07/01 04:51:23;;;;;;;7.03;1.73;;;15.70;99.90;;;;;;5042303;28;20106;-54
2022/07/01 04:53:49;;;;;;;7.22;2.00;;;15.80;99.90;;;;;;5035755;28;20407;-53
2022/07/01 04:56:14;;;;;;;5.00;1.60;;;15.80;99.90;;;;;;5054048;22;20893;-62
2022/07/01 04:58:40;;;;;;;4.43;1.63;;;15.80;99.90;;;;;;5002622;28;20520;-60
2022/07/01 05:01:06;;;;;;;5.00;1.67;;;15.80;99.90;;;;;;5002984;28;20065;-61
2022/07/01 05:03:32;;;;;;;5.38;1.92;;;15.80;99.90;;;;;;4999930;28;20424;-59
2022/07/01 05:05:58;;;;;;;6.45;2.13;;;15.80;99.90;;;;;;5003528;28;20069;-60
2022/07/01 05:08:23;;;;;;;5.30;1.67;;;15.80;99.90;;;;;;4999283;28;20037;-61
2022/07/01 05:10:49;;;;;;;3.42;1.70;;;15.80;99.90;;;;;;5005688;28;20042;-60
2022/07/01 05:13:15;;;;;;;4.55;2.10;;;15.90;99.90;;;;;;4997153;28;20064;-60
2022/07/01 05:15:41;;;;;;;5.63;2.70;;;15.90;99.90;;;;;;4996974;28;20041;-60
2022/07/01 05:23:35;;;;;;;4.35;2.55;;;15.90;99.90;;;;;;4997791;28;20289;-61
2022/07/01 05:26:02;;;;;;;7.07;3.38;;;15.90;99.90;;;;;;4992512;28;20116;-60
2022/07/01 05:28:28;;;;;;;8.57;3.17;;;15.90;99.90;;;;;;4980851;28;20053;-63
2022/07/01 05:30:53;;;;;;;7.32;3.28;;;16.00;99.90;;;;;;4992025;28;20034;-62
2022/07/01 05:33:21;;;;;;;6.32;3.15;;;16.00;99.90;;;;;;4992832;28;20026;-60
2022/07/01 05:35:50;;;;;;;10.38;3.92;;;16.00;99.90;;;;;;5000851;28;20430;-61
2022/07/01 05:38:15;;;;;;;9.38;4.10;;;16.00;99.90;;;;;;4996306;28;20068;-60
2022/07/01 05:40:41;;;;;;;8.27;4.22;;;16.00;99.90;;;;;;5000544;28;20448;-62
2022/07/01 05:43:07;;;;;;;7.18;3.97;;;16.00;99.90;;;;;;5001606;28;20026;-60
2022/07/01 05:45:32;;;;;;;10.38;4.95;;;16.10;99.90;;;;;;4994324;28;20042;-62
2022/07/01 05:47:58;;;;;;;10.18;5.30;;;16.10;99.90;;;;;;4993198;28;20044;-63
2022/07/01 05:50:24;;;;;;;10.65;5.65;;;16.10;99.90;;;;;;5030388;28;20080;-61
2022/07/01 05:52:50;;;;;;;11.02;5.60;;;16.10;99.90;;;;;;4992970;28;20046;-61
2022/07/01 05:55:16;;;;;;;9.30;5.55;;;16.20;99.90;;;;;;4998122;28;20042;-61
2022/07/01 05:57:41;;;;;;;10.15;6.57;;;16.20;99.90;;;;;;4992200;28;20060;-63
2022/07/01 06:00:09;;;;;;;13.68;6.95;;;16.20;99.90;;;;;;4993407;28;20031;-64
2022/07/01 06:02:35;;;;;;;11.90;8.02;;;16.30;99.90;;;;;;4998624;28;20050;-63
2022/07/01 06:05:02;;;;;;;9.48;7.28;;;16.30;99.90;;;;;;5000935;28;20455;-61
2022/07/01 06:07:28;;;;;;;11.90;7.35;;;16.30;99.90;;;;;;5005331;28;20137;-60
2022/07/01 06:09:55;;;;;;;12.80;6.63;;;16.30;99.90;;;;;;5025353;28;20060;-61
2022/07/01 06:12:21;;;;;;;13.05;6.30;;;16.30;99.90;;;;;;5003759;28;20046;-63
2022/07/01 06:14:47;;;;;;;12.40;6.60;;;16.30;99.90;;;;;;4999922;28;20034;-63
2022/07/01 06:17:13;;;;;;;12.73;6.85;;;16.40;99.90;;;;;;4995014;28;20099;-61
2022/07/01 06:19:39;;;;;;;12.27;6.90;;;16.40;99.90;;;;;;5000457;28;20447;-61
2022/07/01 06:22:06;;;;;;;12.75;6.13;;;16.30;99.90;;;;;;5000659;28;20046;-63
2022/07/01 06:24:32;;;;;;;9.80;5.93;;;16.40;99.90;;;;;;4998997;28;20404;-64
2022/07/01 06:26:57;;;;;;;12.38;6.85;;;16.40;99.90;;;;;;4994686;28;20053;-63
2022/07/01 06:29:23;;;;;;;13.20;6.68;;;16.40;99.90;;;;;;5022154;28;20450;-64
2022/07/01 06:31:49;;;;;;;10.57;6.65;;;16.40;99.90;;;;;;4996372;28;20121;-64
2022/07/01 06:34:14;;;;;;;11.23;5.60;;;16.40;99.90;;;;;;5023222;28;20046;-62
2022/07/01 06:36:40;;;;;;;11.45;5.32;;;16.40;99.90;;;;;;4974485;28;20040;-63
2022/07/01 06:39:09;;;;;;;14.05;5.43;;;16.40;99.90;;;;;;4964408;28;20484;-60
2022/07/01 06:41:35;;;;;;;10.68;4.57;;;16.50;99.90;;;;;;4991804;28;21557;-61
2022/07/01 06:44:02;;;;;;;12.10;5.00;;;16.50;99.90;;;;;;5031379;28;20042;-62
2022/07/01 06:46:29;;;;;;;10.85;4.65;;;16.50;99.90;;;;;;5001407;28;20053;-63
2022/07/01 06:48:55;;;;;;;9.88;4.70;;;16.50;99.90;;;;;;5001758;28;20041;-61
2022/07/01 06:51:22;;;;;;;10.43;4.38;;;16.60;99.90;;;;;;4997256;28;20073;-61
2022/07/01 06:53:49;;;;;;;11.55;4.40;;;16.60;99.90;;;;;;5002054;28;20042;-60
2022/07/01 06:56:16;;;;;;;16.73;4.50;;;16.70;99.90;;;;;;5006826;28;20492;-58
2022/07/01 06:58:42;;;;;;;10.57;3.72;;;16.70;99.90;;;;;;4994996;28;20033;-64
2022/07/01 07:01:08;;;;;;;11.35;4.03;;;16.80;99.90;;;;;;5001009;28;20045;-63
2022/07/01 07:03:34;;;;;;;7.63;3.53;;;16.80;99.90;;;;;;4997193;28;20054;-63
2022/07/01 07:06:00;;;;;;;12.75;3.83;;;16.90;99.90;;;;;;5002867;28;20065;-63
2022/07/01 07:08:31;;;;;;;10.23;3.67;;;16.90;99.90;;;;;;4999291;28;20514;-65
2022/07/01 07:10:56;;;;;;;11.80;4.05;;;16.90;99.90;;;;;;5011795;28;20033;-64
2022/07/01 07:13:22;;;;;;;8.93;3.42;;;16.90;99.90;;;;;;4997968;28;20056;-64
2022/07/01 07:15:48;;;;;;;7.10;3.08;;;17.00;99.90;;;;;;4999490;28;20191;-63
2022/07/01 07:18:14;;;;;;;7.38;3.08;;;17.10;99.90;;;;;;4995321;28;20199;-64
2022/07/01 07:20:40;;;;;;;9.95;3.72;;;17.10;99.90;;;;;;5004350;28;20033;-63
2022/07/01 07:23:06;;;;;;;8.13;3.53;;;17.20;99.90;;;;;;5000270;28;20044;-63
2022/07/01 07:25:32;;;;;;;11.10;3.08;;;17.20;99.90;;;;;;5007994;28;20046;-64
2022/07/01 07:27:58;;;;;;;9.13;3.10;;;17.30;99.90;;;;;;5008836;28;20127;-63
2022/07/01 07:30:24;;;;;;;7.60;3.10;;;17.30;99.90;;;;;;5037568;28;20788;-62
2022/07/01 07:32:50;;;;;;;7.75;3.40;;;17.40;99.90;;;;;;5001779;28;20054;-63
2022/07/01 07:35:15;;;;;;;11.98;3.50;;;17.50;99.90;;;;;;5014519;28;20038;-63
2022/07/01 07:37:42;;;;;;;10.57;3.08;;;17.50;99.90;;;;;;4998752;28;20683;-63
2022/07/01 07:40:11;;;;;;;10.00;2.60;;;17.60;99.90;;;;;;5002832;28;20041;-63
2022/07/01 07:42:39;;;;;;;7.70;2.63;;;17.70;99.90;;;;;;5002372;28;20041;-64
2022/07/01 07:45:07;;;;;;;8.88;2.38;;;17.70;99.90;;;;;;4997455;28;20145;-65
2022/07/01 07:47:35;;;;;;;7.47;2.30;;;17.70;99.90;;;;;;5003187;28;20046;-64
2022/07/01 07:50:02;;;;;;;11.20;2.55;;;17.80;99.90;;;;;;5030689;28;20088;-64
2022/07/01 07:52:28;;;;;;;7.57;2.50;;;17.80;99.90;;;;;;5006011;28;20038;-61
2022/07/01 07:54:54;;;;;;;8.82;1.98;;;17.90;99.90;;;;;;5019218;28;20430;-62
2022/07/01 07:57:20;;;;;;;14.90;4.05;;;18.00;99.90;;;;;;4999203;28;20062;-64
2022/07/01 07:59:46;;;;;;;9.63;2.08;;;18.10;99.90;;;;;;4991752;28;20072;-62
2022/07/01 08:02:12;;;;;;;7.75;2.50;;;18.20;99.90;;;;;;5032318;28;20045;-63
2022/07/01 08:04:38;;;;;;;8.57;2.00;;;18.30;99.90;;;;;;5003269;28;20038;-63
2022/07/01 08:07:04;;;;;;;5.90;2.08;;;18.40;99.90;;;;;;5000101;28;20042;-64
2022/07/01 08:09:31;;;;;;;5.90;1.80;;;18.50;99.90;;;;;;4995386;28;20049;-63
2022/07/01 08:11:57;;;;;;;10.98;2.20;;;18.60;99.90;;;;;;5000226;28;20050;-64
2022/07/01 08:14:23;;;;;;;7.10;2.33;;;18.80;99.90;;;;;;5001064;28;20037;-63
2022/07/01 08:16:49;;;;;;;5.55;1.70;;;18.80;99.90;;;;;;4987146;28;20030;-63
2022/07/01 08:19:14;;;;;;;5.97;1.70;;;18.80;99.90;;;;;;4998738;28;20095;-62
2022/07/01 08:21:40;;;;;;;8.05;1.73;;;18.80;99.90;;;;;;5000046;28;20473;-64
2022/07/01 08:24:06;;;;;;;5.50;1.85;;;18.90;99.90;;;;;;4994927;28;20042;-65
2022/07/01 08:26:31;;;;;;;9.65;1.83;;;19.00;99.90;;;;;;4992548;28;20046;-63
2022/07/01 08:28:57;;;;;;;5.15;1.55;;;19.10;99.90;;;;;;5000823;28;20042;-64
2022/07/01 08:31:23;;;;;;;4.80;1.40;;;19.30;99.90;;;;;;4999075;28;20042;-64
2022/07/01 08:33:48;;;;;;;7.57;1.98;;;19.30;99.90;;;;;;4999096;28;20397;-62
2022/07/01 08:36:14;;;;;;;6.05;1.80;;;19.30;99.90;;;;;;5000956;28;20374;-64
2022/07/01 08:38:41;;;;;;;6.25;1.83;;;19.30;99.90;;;;;;4992004;28;20444;-58
2022/07/01 08:41:06;;;;;;;5.95;1.60;;;19.20;99.90;;;;;;4991509;28;20037;-63
2022/07/01 08:43:34;;;;;;;6.10;1.63;;;19.30;99.90;;;;;;5002939;28;20077;-63
2022/07/01 08:46:01;;;;;;;5.22;1.67;;;19.30;99.90;;;;;;4997160;28;20480;-63
2022/07/01 08:48:28;;;;;;;6.78;1.67;;;19.20;99.90;;;;;;4996108;28;20050;-63
2022/07/01 08:50:54;;;;;;;12.50;2.25;;;19.10;99.90;;;;;;4992125;28;20056;-63
2022/07/01 08:53:21;;;;;;;5.65;1.85;;;19.10;99.90;;;;;;4994634;28;20065;-65
2022/07/01 08:58:31;;;;;;;4.82;1.35;;;19.00;99.90;;;;;;4991876;28;20293;-62
2022/07/01 09:01:16;;;;;;;8.95;2.85;;;19.10;99.90;;;;;;4992273;28;20026;-64
2022/07/01 09:03:43;;;;;;;5.78;2.00;;;19.20;99.90;;;;;;5035528;28;20037;-64
2022/07/01 09:06:16;;;;;;;5.75;1.85;;;19.40;99.90;;;;;;5004310;28;20045;-65
2022/07/01 09:08:43;;;;;;;7.90;1.90;;;19.60;99.90;;;;;;4974263;28;20410;-63
2022/07/01 09:11:17;;;;;;;6.63;1.52;;;19.70;99.90;;;;;;4988668;28;20162;-64
2022/07/01 09:13:45;;;;;;;7.45;1.77;;;19.90;99.90;;;;;;5008967;28;20077;-65
2022/07/01 09:16:13;;;;;;;9.38;2.47;;;20.10;99.90;;;;;;5008236;28;20046;-64
2022/07/01 09:18:39;;;;;;;3.35;1.25;;;20.00;99.90;;;;;;5001118;28;20188;-64
2022/07/01 09:21:08;;;;;;;5.35;1.35;;;19.90;99.90;;;;;;4987418;28;20101;-59
2022/07/01 09:23:34;;;;;;;7.32;1.65;;;20.00;99.90;;;;;;4991336;28;20615;-63
2022/07/01 09:26:00;;;;;;;6.60;1.42;;;20.20;99.90;;;;;;5032490;28;20121;-60
2022/07/01 09:28:26;;;;;;;6.40;1.50;;;20.30;99.90;;;;;;5000734;28;20409;-63
2022/07/01 09:30:57;;;;;;;5.55;1.60;;;20.30;99.90;;;;;;4991570;28;20049;-62
2022/07/01 09:33:28;;;;;;;4.75;1.52;;;20.10;99.90;;;;;;5002289;28;20070;-63
2022/07/01 09:35:55;;;;;;;5.97;1.55;;;19.90;99.90;;;;;;4992972;28;20130;-62
2022/07/01 09:38:23;;;;;;;5.70;1.67;;;19.70;99.90;;;;;;4983090;28;20042;-62
2022/07/01 09:40:57;;;;;;;7.28;1.55;;;19.60;99.90;;;;;;4989818;28;20111;-63
2022/07/01 09:43:32;;;;;;;5.13;1.58;;;19.50;99.90;;;;;;4991913;28;20068;-62
2022/07/01 09:46:02;;;;;;;5.72;1.70;;;19.20;99.90;;;;;;4987888;28;20046;-62
2022/07/01 09:48:43;;;;;;;3.17;1.20;;;19.20;99.90;;;;;;4984304;28;20087;-64
2022/07/01 09:51:11;;;;;;;4.80;1.10;;;19.10;99.90;;;;;;4989005;28;20485;-64
2022/07/01 09:53:37;;;;;;;7.93;1.88;;;19.10;99.90;;;;;;4991317;28;20052;-63
2022/07/01 09:56:03;;;;;;;5.22;1.55;;;19.00;99.90;;;;;;5008785;28;20046;-64
2022/07/01 09:58:28;;;;;;;4.13;1.30;;;19.00;99.90;;;;;;4993794;28;20066;-63
2022/07/01 10:00:55;;;;;;;4.97;1.20;;;18.90;99.90;;;;;;4986683;28;20512;-63
2022/07/01 10:03:22;;;;;;;3.38;1.15;;;18.80;99.90;;;;;;4997356;28;20026;-63
2022/07/01 10:06:10;;;;;;;7.88;1.30;;;18.80;99.90;;;;;;4995196;28;20041;-63
2022/07/01 10:09:13;;;;;;;3.22;1.40;;;18.90;99.90;;;;;;4986347;28;20053;-63
2022/07/01 10:11:57;;;;;;;2.92;0.95;;;18.80;99.90;;;;;;4990564;28;20046;-62
2022/07/01 10:14:24;;;;;;;;;;;18.70;99.90;;;;;;4998334;28;20065;-61
2022/07/01 10:16:49;;;;;;;4.60;1.20;;;18.70;99.90;;;;;;4997427;28;19917;-64
2022/07/01 10:19:25;;;;;;;3.28;0.93;;;18.60;99.90;;;;;;4992110;28;20871;-64
2022/07/01 10:21:53;;;;;;;3.78;1.00;;;18.60;99.90;;;;;;5013958;28;20054;-63
2022/07/01 10:24:20;;;;;;;5.95;1.85;;;18.60;99.90;;;;;;5024372;28;20599;-63
2022/07/01 10:26:46;;;;;;;3.28;1.02;;;18.60;99.90;;;;;;4989211;28;20133;-61
2022/07/01 10:29:35;;;;;;;4.38;1.42;;;18.70;99.90;;;;;;4998527;28;20335;-60
2022/07/01 10:32:08;;;;;;;5.05;1.20;;;18.90;99.90;;;;;;4996146;28;20074;-62
2022/07/01 10:34:40;;;;;;;3.47;1.00;;;19.10;99.90;;;;;;5006789;28;20104;-61
2022/07/01 10:37:11;;;;;;;3.78;1.20;;;19.50;99.90;;;;;;5027544;28;20037;-63
2022/07/01 10:40:00;;;;;;;3.13;1.10;;;19.80;99.90;;;;;;4991322;28;20057;-63
2022/07/01 10:42:30;;;;;;;4.07;1.10;;;19.90;99.90;;;;;;4988949;28;20116;-62
2022/07/01 10:45:02;;;;;;;2.63;1.02;;;19.90;99.90;;;;;;4986584;28;20050;-63
2022/07/01 10:47:28;;;;;;;6.18;1.75;;;20.10;99.90;;;;;;4990161;28;20050;-63
2022/07/01 10:50:04;;;;;;;3.40;1.60;;;20.20;99.90;;;;;;4991818;28;20050;-60
2022/07/01 10:52:30;;;;;;;3.63;1.73;;;20.20;99.90;;;;;;5028345;28;20045;-61
2022/07/01 10:54:57;;;;;;;5.00;1.50;;;20.10;99.90;;;;;;5010228;28;20034;-63
2022/07/01 10:57:27;;;;;;;4.95;1.80;;;20.20;99.90;;;;;;5042714;22;20056;-51
2022/07/01 10:59:53;;;;;;;3.63;1.48;;;20.30;99.90;;;;;;5033226;28;20033;-53
2022/07/01 11:02:22;;;;;;;3.38;1.67;;;20.50;99.90;;;;;;5036507;28;20112;-58
2022/07/01 11:04:49;;;;;;;4.85;1.80;;;20.30;99.90;;;;;;5020836;28;20388;-54
2022/07/01 11:07:15;;;;;;;4.18;1.58;;;20.40;99.90;;;;;;5041910;28;20076;-53
2022/07/01 11:09:41;;;;;;;5.00;1.60;;;20.30;99.90;;;;;;5032300;28;20472;-55
2022/07/01 11:12:08;;;;;;;4.30;1.70;;;20.30;99.90;;;;;;5035063;28;20486;-55
2022/07/01 11:14:39;;;;;;;4.03;1.80;;;20.20;99.90;;;;;;5035027;28;20068;-56
2022/07/01 11:17:06;;;;;;;5.40;2.08;;;20.00;99.90;;;;;;5038961;28;20044;-56
2022/07/01 11:19:32;;;;;;;4.05;1.70;;;19.90;99.90;;;;;;5036791;28;21953;-52
2022/07/01 11:21:58;;;;;;;7.43;2.72;;;19.80;99.90;;;;;;5037433;28;20433;-54
2022/07/01 11:24:24;;;;;;;4.05;1.85;;;19.90;99.90;;;;;;5036094;28;20892;-55
2022/07/01 11:26:54;;;;;;;3.67;1.33;;;20.20;99.90;;;;;;5037607;28;20045;-49
2022/07/01 11:29:27;;;;;;;6.03;1.60;;;20.50;99.90;;;;;;5032580;28;20052;-58
2022/07/01 11:31:53;;;;;;;3.80;1.83;;;20.80;99.90;;;;;;5044035;28;20041;-50
2022/07/01 11:34:19;;;;;;;4.38;1.98;;;20.90;99.90;;;;;;5036405;28;20403;-51
2022/07/01 11:39:34;;;;;;;5.53;1.55;;;20.80;99.90;;;;;;5034206;28;20498;-59
2022/07/01 11:42:06;;;;;;;4.35;1.27;;;20.70;99.90;;;;;;5034662;28;20515;-51
2022/07/01 11:44:38;;;;;;;5.00;1.20;;;20.60;99.90;;;;;;5028001;28;20399;-56
2022/07/01 11:47:11;;;;;;;6.70;2.03;;;20.60;99.90;;;;;;5040655;28;20044;-53
2022/07/01 11:49:47;;;;;;;4.10;1.48;;;20.50;99.90;;;;;;5023148;28;20064;-56
2022/07/01 11:52:14;;;;;;;4.18;1.27;;;20.40;99.90;;;;;;5028070;28;20045;-56
2022/07/01 11:54:41;;;;;;;4.50;1.40;;;20.40;99.90;;;;;;5030737;28;20049;-57
2022/07/01 11:57:14;;;;;;;6.43;1.55;;;20.80;99.90;;;;;;5018291;28;20048;-56
2022/07/01 11:59:40;;;;;;;4.53;0.88;;;21.00;99.90;;;;;;5034192;28;20037;-59
2022/07/01 12:02:08;;;;;;;2.45;0.90;;;21.30;99.30;;;;;;5019802;28;20060;-56
2022/07/01 12:04:34;;;;;;;2.42;0.80;;;21.30;98.90;;;;;;5040246;28;20566;-57
2022/07/01 12:07:00;;;;;;;5.07;1.15;;;21.40;98.30;;;;;;5046192;28;20037;-52
2022/07/01 12:09:27;;;;;;;3.60;1.30;;;21.50;98.40;;;;;;5041994;28;20807;-51
2022/07/01 12:11:53;;;;;;;3.67;0.90;;;21.70;98.30;;;;;;5039313;28;20108;-49
2022/07/01 12:14:21;;;;;;;3.42;0.90;;;21.60;97.20;;;;;;5037525;28;20085;-55
2022/07/01 12:16:47;;;;;;;3.22;1.00;;;21.80;97.00;;;;;;5045248;28;20326;-57
2022/07/01 12:19:13;;;;;;;5.22;1.42;;;21.90;97.40;;;;;;5034872;28;20048;-55
2022/07/01 12:21:58;;;;;;;5.03;1.17;;;21.60;97.20;;;;;;5013010;28;20041;-52
2022/07/01 12:24:24;;;;;;;8.68;1.80;;;22.00;96.20;;;;;;5027977;28;20049;-52
2022/07/01 12:26:51;;;;;;;3.42;1.00;;;22.10;96.50;;;;;;5035624;28;20041;-57
2022/07/01 12:29:22;;;;;;;2.75;1.13;;;22.20;96.10;;;;;;5032388;28;20041;-50
2022/07/01 12:31:59;;;;;;;2.95;0.85;;;22.20;96.20;;;;;;5024936;28;20516;-49
2022/07/01 12:35:05;;;;;;;2.88;1.00;;;22.40;95.90;;;;;;5030153;28;20049;-52
2022/07/01 12:37:38;;;;;;;4.25;1.02;;;22.60;95.90;;;;;;5029210;28;20496;-52
2022/07/01 12:40:25;;;;;;;3.70;0.82;;;22.70;95.20;;;;;;5034788;28;20047;-49
2022/07/01 12:42:51;;;;;;;4.05;1.08;;;22.90;94.90;;;;;;5032368;28;20043;-54
2022/07/01 12:45:23;;;;;;;4.78;1.17;;;22.90;95.20;;;;;;5037789;28;20061;-52
2022/07/01 12:47:59;;;;;;;3.60;1.13;;;22.70;94.30;;;;;;5040509;28;20091;-56
2022/07/01 12:50:27;;;;;;;4.18;0.82;;;22.10;93.70;;;;;;5029594;28;20029;-57
2022/07/01 12:53:11;;;;;;;5.43;1.00;;;21.80;94.50;;;;;;5034197;28;20083;-59
2022/07/01 12:55:39;;;;;;;5.93;1.15;;;21.50;94.20;;;;;;5039441;28;20052;-53
2022/07/01 12:58:32;;;;;;;2.75;1.10;;;21.20;94.50;;;;;;5039532;28;23900;-52
2022/07/01 13:00:58;;;;;;;5.82;1.35;;;21.10;95.50;;;;;;5038669;28;20041;-54
2022/07/01 13:03:25;;;;;;;4.93;1.20;;;20.80;95.90;;;;;;5040219;28;20131;-52
2022/07/01 13:05:52;;;;;;;6.03;1.10;;;20.60;97.00;;;;;;5039714;28;20628;-52